createdAt,value
2023-05-19T00:01:44.948Z,100644.31
2023-05-19T00:04:47.242Z,100639.03
2023-05-19T00:07:51.425Z,100636.38
2023-05-19T00:10:53.571Z,100631.94
2023-05-19T00:13:56.408Z,100628.34
2023-05-19T00:17:00.061Z,100625.69
2023-05-19T00:20:01.922Z,100629.22
2023-05-19T00:23:03.621Z,100625.69
2023-05-19T00:26:05.356Z,100638.06
2023-05-19T00:29:07.121Z,100630.09
2023-05-19T00:32:10.215Z,100628.34
2023-05-19T00:35:12.357Z,100628.34
2023-05-19T00:38:14.062Z,100638.09
2023-05-19T00:41:15.793Z,100631.88
2023-05-19T00:44:19.737Z,100628.34
2023-05-19T00:47:22.773Z,100633.66
2023-05-19T00:50:24.470Z,100631.00
2023-05-19T00:53:26.180Z,100623.88
2023-05-19T00:56:28.240Z,100622.09
2023-05-19T00:59:30.232Z,100625.69
2023-05-19T01:02:33.458Z,100619.47
2023-05-19T01:05:35.933Z,100622.97
2023-05-19T01:08:38.466Z,100622.06
2023-05-19T01:11:40.153Z,100618.50
2023-05-19T01:14:42.424Z,100633.56
2023-05-19T01:17:53.448Z,100624.69
2023-05-19T01:21:23.247Z,100619.38
2023-05-19T01:24:45.213Z,100622.03
2023-05-19T01:28:10.320Z,100626.47
2023-05-19T01:31:15.406Z,100627.31
2023-05-19T01:34:19.533Z,100621.13
2023-05-19T01:37:21.652Z,100618.44
2023-05-19T01:40:24.648Z,100619.31
2023-05-19T01:43:27.332Z,100615.81
2023-05-19T01:46:30.434Z,100614.03
2023-05-19T01:49:32.124Z,100621.13
2023-05-19T01:52:33.950Z,100596.28
2023-05-19T01:55:36.762Z,100611.38
2023-05-19T01:58:45.159Z,100612.25
2023-05-19T02:01:53.279Z,100614.03
2023-05-19T02:05:00.005Z,100626.44
2023-05-19T02:08:11.441Z,100633.50
2023-05-19T02:11:19.586Z,100630.03
2023-05-19T02:14:29.019Z,100632.69
2023-05-19T02:17:35.939Z,100628.31
2023-05-19T02:20:37.794Z,100631.94
2023-05-19T02:23:39.911Z,100635.41
2023-05-19T02:26:41.543Z,100622.97
2023-05-19T02:29:43.255Z,100610.53
2023-05-19T02:32:46.347Z,100620.28
2023-05-19T02:35:48.009Z,100621.16
2023-05-19T02:38:49.697Z,100614.94
2023-05-19T02:41:51.618Z,100622.94
2023-05-19T02:44:54.735Z,100614.09
2023-05-19T02:47:59.175Z,100620.25
2023-05-19T02:51:00.820Z,100625.53
2023-05-19T02:54:02.507Z,100620.22
2023-05-19T02:57:04.594Z,100618.44
2023-05-19T03:00:07.719Z,100622.88
2023-05-19T03:03:10.905Z,100621.09
2023-05-19T03:06:12.988Z,100621.09
2023-05-19T03:09:14.660Z,100618.47
2023-05-19T03:12:16.333Z,100626.41
2023-05-19T03:15:18.011Z,100625.56
2023-05-19T03:18:21.039Z,100624.72
2023-05-19T03:21:23.107Z,100635.31
2023-05-19T03:24:29.710Z,100634.44
2023-05-19T03:27:31.368Z,100630.03
2023-05-19T03:30:33.293Z,100639.72
2023-05-19T03:33:36.870Z,100642.38
2023-05-19T03:36:38.603Z,100637.94
2023-05-19T03:39:40.309Z,100639.81
2023-05-19T03:42:41.940Z,100633.69
2023-05-19T03:45:43.705Z,100634.56
2023-05-19T03:48:46.727Z,100636.31
2023-05-19T03:51:48.380Z,100641.72
2023-05-19T03:54:50.056Z,100634.53
2023-05-19T03:57:51.786Z,100641.59
2023-05-19T04:00:53.436Z,100636.31
2023-05-19T04:03:56.586Z,100637.25
2023-05-19T04:06:58.374Z,100646.97
2023-05-19T04:10:00.261Z,100652.31
2023-05-19T04:13:02.260Z,100657.66
2023-05-19T04:16:04.583Z,100662.13
2023-05-19T04:19:07.975Z,100662.09
2023-05-19T04:22:09.621Z,100665.66
2023-05-19T04:25:11.233Z,100662.97
2023-05-19T04:28:12.908Z,100661.22
2023-05-19T04:31:14.886Z,100666.56
2023-05-19T04:34:17.988Z,100669.22
2023-05-19T04:37:19.822Z,100666.53
2023-05-19T04:40:21.567Z,100682.53
2023-05-19T04:43:23.219Z,100679.88
2023-05-19T04:46:24.906Z,100678.09
2023-05-19T04:49:27.970Z,100667.47
2023-05-19T04:52:29.697Z,100671.00
2023-05-19T04:55:31.437Z,100672.81
2023-05-19T04:58:33.150Z,100674.63
2023-05-19T05:01:34.864Z,100677.28
2023-05-19T05:04:38.165Z,100662.22
2023-05-19T05:07:39.841Z,100679.97
2023-05-19T05:10:41.671Z,100678.16
2023-05-19T05:13:44.060Z,100679.03
2023-05-19T05:16:46.462Z,100682.59
2023-05-19T05:19:50.348Z,100679.03
2023-05-19T05:22:52.509Z,100681.66
2023-05-19T05:25:54.683Z,100686.09
2023-05-19T05:28:56.391Z,100690.50
2023-05-19T05:31:58.349Z,100689.56
2023-05-19T05:35:01.552Z,100685.09
2023-05-19T05:38:03.744Z,100690.31
2023-05-19T05:41:05.480Z,100693.81
2023-05-19T05:44:07.531Z,100700.78
2023-05-19T05:47:09.962Z,100706.00
2023-05-19T05:50:14.341Z,100708.63
2023-05-19T05:53:19.086Z,100703.38
2023-05-19T05:56:21.693Z,100691.72
2023-05-19T05:59:23.406Z,100709.47
2023-05-19T06:02:25.527Z,100703.31
2023-05-19T06:05:28.976Z,100713.03
2023-05-19T06:08:30.701Z,100706.75
2023-05-19T06:11:32.723Z,100718.31
2023-05-19T06:14:34.631Z,100710.25
2023-05-19T06:17:36.609Z,100726.19
2023-05-19T06:20:39.730Z,100726.97
2023-05-19T06:23:41.434Z,100725.97
2023-05-19T06:26:43.180Z,100734.00
2023-05-19T06:29:44.893Z,100728.63
2023-05-19T06:32:46.598Z,100721.22
2023-05-19T06:35:49.701Z,100719.50
2023-05-19T06:38:51.436Z,100715.16
2023-05-19T06:41:53.399Z,100723.03
2023-05-19T06:44:55.820Z,100719.38
2023-05-19T06:47:57.600Z,100715.84
2023-05-19T06:51:00.691Z,100723.75
2023-05-19T06:54:02.421Z,100720.03
2023-05-19T06:57:04.321Z,100717.09
2023-05-19T07:00:07.727Z,100723.22
2023-05-19T07:03:09.348Z,100721.41
2023-05-19T07:06:12.583Z,100722.91
2023-05-19T07:09:14.276Z,100721.09
2023-05-19T07:12:16.428Z,100719.00
2023-05-19T07:15:18.326Z,100717.94
2023-05-19T07:18:20.039Z,100724.19
2023-05-19T07:21:23.387Z,100719.84
2023-05-19T07:24:24.848Z,100725.34
2023-05-19T07:27:26.728Z,100723.38
2023-05-19T07:30:28.928Z,100721.41
2023-05-19T07:33:30.834Z,100720.31
2023-05-19T07:36:33.860Z,100728.16
2023-05-19T07:39:36.223Z,100716.44
2023-05-19T07:42:37.890Z,100718.84
2023-05-19T07:45:39.909Z,100721.66
2023-05-19T07:48:41.580Z,100716.84
2023-05-19T07:51:44.632Z,100720.63
2023-05-19T07:54:46.591Z,100722.19
2023-05-19T07:57:48.342Z,100711.22
2023-05-19T08:00:50.006Z,100719.66
2023-05-19T08:03:51.697Z,100721.47
2023-05-19T08:06:54.764Z,100729.41
2023-05-19T08:09:56.418Z,100728.38
2023-05-19T08:12:58.218Z,100718.22
2023-05-19T08:16:00.353Z,100723.50
2023-05-19T08:19:02.200Z,100718.63
2023-05-19T08:22:05.316Z,100710.41
2023-05-19T08:25:07.246Z,100717.19
2023-05-19T08:28:09.058Z,100717.97
2023-05-19T08:31:10.959Z,100702.59
2023-05-19T08:34:12.700Z,100708.09
2023-05-19T08:37:15.806Z,100717.81
2023-05-19T08:40:18.521Z,100720.34
2023-05-19T08:43:20.498Z,100710.56
2023-05-19T08:46:24.936Z,100706.72
2023-05-19T08:49:27.715Z,100715.28
2023-05-19T08:52:35.642Z,100712.97
2023-05-19T08:55:43.988Z,100706.88
2023-05-19T08:58:47.214Z,100702.31
2023-05-19T09:01:48.794Z,100699.31
2023-05-19T09:04:50.403Z,100698.75
2023-05-19T09:07:53.596Z,100700.03
2023-05-19T09:10:55.742Z,100682.34
2023-05-19T09:13:57.733Z,100692.59
2023-05-19T09:16:59.546Z,100684.56
2023-05-19T09:20:01.746Z,100681.16
2023-05-19T09:23:05.653Z,100684.75
2023-05-19T09:26:07.691Z,100688.56
2023-05-19T09:29:13.825Z,100686.66
2023-05-19T09:32:24.855Z,100691.59
2023-05-19T09:35:26.718Z,100689.31
2023-05-19T09:38:29.828Z,100689.88
2023-05-19T09:41:31.614Z,100685.16
2023-05-19T09:44:35.310Z,100681.69
2023-05-19T09:47:37.695Z,100674.66
2023-05-19T09:50:39.865Z,100667.66
2023-05-19T09:53:46.883Z,100659.00
2023-05-19T09:56:52.188Z,100663.09
2023-05-19T09:59:55.560Z,100658.78
2023-05-19T10:02:58.525Z,100662.34
2023-05-19T10:06:01.156Z,100660.41
2023-05-19T10:09:04.381Z,100661.03
2023-05-19T10:12:06.819Z,100658.09
2023-05-19T10:15:10.850Z,100654.09
2023-05-19T10:18:15.819Z,100654.69
2023-05-19T10:21:18.302Z,100646.31
2023-05-19T10:24:21.753Z,100652.31
2023-05-19T10:27:23.738Z,100649.59
2023-05-19T10:30:29.326Z,100643.91
2023-05-19T10:33:47.198Z,100643.84
2023-05-19T10:39:59.987Z,100622.84
2023-05-19T10:43:18.067Z,100625.81
2023-05-19T10:46:24.025Z,100622.50
2023-05-19T10:49:26.289Z,100618.31
2023-05-19T10:52:30.096Z,100615.38
2023-05-19T10:55:51.031Z,100615.88
2023-05-19T10:58:52.664Z,100602.81
2023-05-19T11:01:54.354Z,100600.63
2023-05-19T11:05:07.490Z,100603.03
2023-05-19T11:08:09.356Z,100602.94
2023-05-19T11:11:17.462Z,100588.03
2023-05-19T11:14:21.301Z,100594.63
2023-05-19T11:17:25.191Z,100602.66
2023-05-19T11:20:28.846Z,100600.47
2023-05-19T11:23:35.440Z,100595.41
2023-05-19T11:26:42.408Z,100590.66
2023-05-19T11:29:44.171Z,100588.53
2023-05-19T11:32:48.200Z,100588.84
2023-05-19T11:35:51.030Z,100582.31
2023-05-19T11:38:53.253Z,100588.69
2023-05-19T11:41:56.934Z,100585.84
2023-05-19T11:44:58.866Z,100593.81
2023-05-19T11:48:03.014Z,100586.44
2023-05-19T11:51:06.679Z,100588.13
2023-05-19T11:54:08.395Z,100581.19
2023-05-19T11:57:11.384Z,100585.22
2023-05-19T12:00:13.936Z,100580.66
2023-05-19T12:03:16.197Z,100580.78
2023-05-19T12:06:18.116Z,100582.19
2023-05-19T12:09:23.013Z,100580.09
2023-05-19T12:12:26.040Z,100579.38
2023-05-19T12:15:27.841Z,100572.97
2023-05-19T12:18:30.354Z,100566.75
2023-05-19T12:21:34.031Z,100563.81
2023-05-19T12:24:37.657Z,100560.63
2023-05-19T12:27:43.293Z,100555.53
2023-05-19T12:30:48.043Z,100549.75
2023-05-19T12:33:50.204Z,100552.91
2023-05-19T12:36:51.872Z,100549.78
2023-05-19T12:39:55.455Z,100554.31
2023-05-19T12:42:58.471Z,100555.38
2023-05-19T12:46:08.935Z,100550.88
2023-05-19T12:49:10.653Z,100539.66
2023-05-19T12:52:13.720Z,100541.06
2023-05-19T12:55:15.594Z,100546.59
2023-05-19T12:58:19.132Z,100540.19
2023-05-19T13:01:22.501Z,100535.56
2023-05-19T13:04:24.499Z,100528.84
2023-05-19T13:07:26.251Z,100519.16
2023-05-19T13:10:28.772Z,100524.88
2023-05-19T13:13:31.806Z,100519.63
2023-05-19T13:16:33.340Z,100521.38
2023-05-19T13:19:35.405Z,100524.44
2023-05-19T13:22:37.106Z,100520.16
2023-05-19T13:25:39.354Z,100517.72
2023-05-19T13:28:42.354Z,100513.28
2023-05-19T13:31:43.881Z,100509.84
2023-05-19T13:34:45.618Z,100503.31
2023-05-19T13:37:47.317Z,100494.88
2023-05-19T13:40:49.001Z,100496.28
2023-05-19T13:43:52.147Z,100495.28
2023-05-19T13:46:54.073Z,100486.69
2023-05-19T13:49:55.927Z,100493.19
2023-05-19T13:52:57.870Z,100493.66
2023-05-19T13:56:00.757Z,100498.66
2023-05-19T13:59:03.952Z,100498.88
2023-05-19T14:02:06.426Z,100489.06
2023-05-19T14:05:08.720Z,100487.69
2023-05-19T14:08:10.394Z,100478.78
2023-05-19T14:11:17.857Z,100491.16
2023-05-19T14:14:21.240Z,100483.22
2023-05-19T14:17:23.029Z,100488.38
2023-05-19T14:20:25.878Z,100481.50
2023-05-19T14:23:28.724Z,100486.41
2023-05-19T14:26:30.411Z,100494.88
2023-05-19T14:29:33.588Z,100493.97
2023-05-19T14:32:35.526Z,100482.13
2023-05-19T14:35:37.315Z,100480.72
2023-05-19T14:38:38.977Z,100487.56
2023-05-19T14:41:40.690Z,100487.47
2023-05-19T14:44:44.011Z,100476.41
2023-05-19T14:47:47.096Z,100487.31
2023-05-19T14:50:49.555Z,100494.16
2023-05-19T14:53:51.465Z,100482.25
2023-05-19T14:56:53.130Z,100489.25
2023-05-19T14:59:56.168Z,100479.97
2023-05-19T15:02:57.902Z,100487.38
2023-05-19T15:05:59.836Z,100491.94
2023-05-19T15:09:01.702Z,100489.38
2023-05-19T15:12:03.784Z,100487.03
2023-05-19T15:15:08.422Z,100480.50
2023-05-19T15:18:10.162Z,100482.34
2023-05-19T15:21:12.088Z,100479.72
2023-05-19T15:24:16.008Z,100483.91
2023-05-19T15:27:18.010Z,100481.00
2023-05-19T15:30:21.185Z,100482.47
2023-05-19T15:33:22.826Z,100478.78
2023-05-19T15:36:24.719Z,100473.25
2023-05-19T15:39:26.335Z,100478.56
2023-05-19T15:42:28.249Z,100476.31
2023-05-19T15:45:31.537Z,100471.31
2023-05-19T15:48:33.272Z,100465.53
2023-05-19T15:51:35.100Z,100473.28
2023-05-19T15:54:36.737Z,100475.84
2023-05-19T15:57:38.409Z,100469.84
2023-05-19T16:00:41.967Z,100464.78
2023-05-19T16:03:44.434Z,100470.34
2023-05-19T16:06:46.400Z,100470.03
2023-05-19T16:09:48.034Z,100464.31
2023-05-19T16:12:49.759Z,100471.16
2023-05-19T16:15:52.966Z,100466.81
2023-05-19T16:18:54.702Z,100467.91
2023-05-19T16:21:56.374Z,100463.66
2023-05-19T16:24:58.274Z,100477.44
2023-05-19T16:27:59.976Z,100470.50
2023-05-19T16:31:03.036Z,100470.75
2023-05-19T16:34:04.726Z,100475.47
2023-05-19T16:37:06.442Z,100472.16
2023-05-19T16:40:09.017Z,100468.91
2023-05-19T16:43:10.903Z,100472.59
2023-05-19T16:46:13.943Z,100466.72
2023-05-19T16:49:15.429Z,100476.66
2023-05-19T16:52:17.127Z,100472.72
2023-05-19T16:55:21.917Z,100464.06
2023-05-19T16:58:23.606Z,100467.13
2023-05-19T17:01:26.770Z,100475.50
2023-05-19T17:04:30.654Z,100464.22
2023-05-19T17:07:32.531Z,100473.38
2023-05-19T17:10:34.548Z,100475.50
2023-05-19T17:13:36.554Z,100472.16
2023-05-19T17:16:39.941Z,100476.16
2023-05-19T17:19:41.606Z,100478.16
2023-05-19T17:22:43.698Z,100480.31
2023-05-19T17:25:45.473Z,100481.53
2023-05-19T17:28:47.181Z,100482.75
2023-05-19T17:31:50.271Z,100484.03
2023-05-19T17:34:51.764Z,100487.97
2023-05-19T17:37:53.258Z,100486.56
2023-05-19T17:40:57.668Z,100482.72
2023-05-19T17:43:59.578Z,100494.84
2023-05-19T17:47:02.830Z,100489.91
2023-05-19T17:50:05.357Z,100485.88
2023-05-19T17:53:07.547Z,100483.59
2023-05-19T17:56:11.733Z,100486.63
2023-05-19T17:59:13.692Z,100480.72
2023-05-19T18:02:18.373Z,100482.13
2023-05-19T18:05:21.295Z,100481.50
2023-05-19T18:08:23.598Z,100484.69
2023-05-19T18:11:25.805Z,100488.66
2023-05-19T18:14:28.608Z,100471.34
2023-05-19T18:17:31.780Z,100491.47
2023-05-19T18:20:34.454Z,100473.06
2023-05-19T18:23:36.402Z,100476.06
2023-05-19T18:26:38.178Z,100473.69
2023-05-19T18:29:39.924Z,100468.69
2023-05-19T18:32:43.269Z,100479.53
2023-05-19T18:35:46.314Z,100479.81
2023-05-19T18:38:48.428Z,100479.94
2023-05-19T18:41:50.324Z,100484.63
2023-05-19T18:44:52.038Z,100484.91
2023-05-19T18:47:55.146Z,100493.94
2023-05-19T18:50:56.847Z,100501.28
2023-05-19T18:53:58.629Z,100509.50
2023-05-19T18:57:00.736Z,100513.16
2023-05-19T19:00:02.411Z,100512.31
2023-05-19T19:03:05.787Z,100510.59
2023-05-19T19:06:07.864Z,100513.19
2023-05-19T19:09:09.764Z,100514.19
2023-05-19T19:12:11.456Z,100515.16
2023-05-19T19:15:13.243Z,100515.25
2023-05-19T19:18:16.293Z,100526.00
2023-05-19T19:21:17.972Z,100522.50
2023-05-19T19:24:19.973Z,100533.22
2023-05-19T19:27:22.352Z,100510.09
2023-05-19T19:30:24.105Z,100530.53
2023-05-19T19:33:27.193Z,100526.91
2023-05-19T19:36:28.969Z,100518.91
2023-05-19T19:39:31.131Z,100533.06
2023-05-19T19:42:32.896Z,100525.88
2023-05-19T19:45:34.903Z,100530.25
2023-05-19T19:48:38.134Z,100530.16
2023-05-19T19:51:39.740Z,100527.41
2023-05-19T19:54:41.442Z,100532.78
2023-05-19T19:57:43.138Z,100532.84
2023-05-19T20:00:45.062Z,100536.38
2023-05-19T20:03:48.449Z,100539.06
2023-05-19T20:06:50.480Z,100537.25
2023-05-19T20:09:52.276Z,100540.81
2023-05-19T20:12:53.941Z,100531.81
2023-05-19T20:15:55.642Z,100533.66
2023-05-19T20:18:59.071Z,100534.66
2023-05-19T20:22:00.891Z,100537.41
2023-05-19T20:25:02.526Z,100518.03
2023-05-19T20:28:04.567Z,100536.75
2023-05-19T20:31:06.529Z,100532.25
2023-05-19T20:34:09.584Z,100529.69
2023-05-19T20:37:11.542Z,100536.75
2023-05-19T20:40:13.266Z,100534.91
2023-05-19T20:43:15.184Z,100533.16
2023-05-19T20:46:17.205Z,100538.56
2023-05-19T20:49:20.369Z,100532.38
2023-05-19T20:52:22.094Z,100536.91
2023-05-19T20:55:23.757Z,100535.13
2023-05-19T20:58:25.466Z,100535.28
2023-05-19T21:01:27.269Z,100537.00
2023-05-19T21:04:30.463Z,100534.41
2023-05-19T21:07:31.939Z,100533.56
2023-05-19T21:10:33.667Z,100539.09
2023-05-19T21:13:35.492Z,100531.28
2023-05-19T21:16:37.184Z,100531.44
2023-05-19T21:19:40.215Z,100530.84
2023-05-19T21:22:42.086Z,100529.06
2023-05-19T21:25:45.417Z,100523.78
2023-05-19T21:28:47.301Z,100527.34
2023-05-19T21:31:49.176Z,100524.69
2023-05-19T21:34:52.200Z,100498.09
2023-05-19T21:37:53.887Z,100506.81
2023-05-19T21:40:55.663Z,100511.25
2023-05-19T21:43:57.308Z,100494.38
2023-05-19T21:46:59.097Z,100494.31
2023-05-19T21:50:02.371Z,100491.53
2023-05-19T21:53:04.190Z,100500.47
2023-05-19T21:56:06.004Z,100502.09
2023-05-19T21:59:08.246Z,100500.22
2023-05-19T22:02:09.993Z,100501.88
2023-05-19T22:05:13.154Z,100492.09
2023-05-19T22:08:15.187Z,100505.22
2023-05-19T22:11:16.837Z,100510.34
2023-05-19T22:14:18.568Z,100513.78
2023-05-19T22:17:20.242Z,100506.66
2023-05-19T22:20:23.305Z,100514.78
2023-05-19T22:23:25.162Z,100506.97
2023-05-19T22:26:26.863Z,100509.66
2023-05-19T22:29:28.533Z,100508.81
2023-05-19T22:32:30.471Z,100499.28
2023-05-19T22:35:33.826Z,100503.81
2023-05-19T22:38:35.767Z,100503.09
2023-05-19T22:41:37.438Z,100507.69
2023-05-19T22:44:39.324Z,100505.19
2023-05-19T22:47:41.022Z,100500.97
2023-05-19T22:50:44.091Z,100500.31
2023-05-19T22:53:45.931Z,100490.56
2023-05-19T22:56:47.866Z,100481.72
2023-05-19T22:59:49.805Z,100487.22
2023-05-19T23:02:51.622Z,100480.91
2023-05-19T23:05:54.934Z,100469.28
2023-05-19T23:09:00.760Z,100467.38
2023-05-19T23:12:02.451Z,100462.16
2023-05-19T23:15:04.944Z,100463.97
2023-05-19T23:18:06.868Z,100467.44
2023-05-19T23:21:09.976Z,100468.38
2023-05-19T23:24:11.921Z,100457.69
2023-05-19T23:27:13.616Z,100462.16
2023-05-19T23:30:15.329Z,100466.78
2023-05-19T23:33:17.209Z,100458.81
2023-05-19T23:36:20.240Z,100452.56
2023-05-19T23:39:22.152Z,100457.94
2023-05-19T23:42:23.794Z,100450.84
2023-05-19T23:45:25.804Z,100449.09
2023-05-19T23:48:28.326Z,100446.63
2023-05-19T23:51:31.678Z,100457.25
2023-05-19T23:54:33.623Z,100445.75
2023-05-19T23:57:35.571Z,100455.63
